Wolf Creek Observed Data For Previous 48 Hours

Caption
Day and Hour Reservoir Elevation (behind dam)* Tailwater Elevation (below dam)* Average Hourly Discharge*
1/15/2018 1 AM CST 698.48 550.58 8,080
1/15/2018 2 AM CST 698.47 550.87 8,080
1/15/2018 3 AM CST 698.46 550.96 8,080
1/15/2018 4 AM CST 698.45 552.65 12,200
1/15/2018 5 AM CST 698.44 555.04 16,740
1/15/2018 6 AM CST 698.42 555.42 16,740
1/15/2018 7 AM CST 698.41 556.01 16,820
1/15/2018 8 AM CST 698.41 556.11 16,820
1/15/2018 9 AM CST 698.41 556.21 16,820
1/15/2018 10 AM CST 698.40 553.90 12,200
1/15/2018 11 AM CST 698.38 552.68 8,080
1/15/2018 12 PM CST 698.37 552.17 8,080
1/15/2018 1 PM CST 698.37 551.87 8,080
1/15/2018 2 PM CST 698.37 551.67 8,080
1/15/2018 3 PM CST 698.37 551.57 8,080
1/15/2018 4 PM CST 698.37 551.47 8,080
1/15/2018 5 PM CST 698.37 553.07 12,290
1/15/2018 6 PM CST 698.37 553.37 12,290
1/15/2018 7 PM CST 698.36 553.56 12,290
1/15/2018 8 PM CST 698.35 553.75 12,290
1/15/2018 9 PM CST 698.34 552.04 8,140
1/15/2018 10 PM CST 698.33 551.63 8,080
1/15/2018 11 PM CST 698.32 551.42 8,080
1/16/2018 12 AM CST 698.31 551.41 8,080
1/16/2018 1 AM CST 698.31 551.31 8,080
1/16/2018 2 AM CST 698.31 551.21 8,080
1/16/2018 3 AM CST 698.31 551.11 8,080
1/16/2018 4 AM CST 698.31 551.11 8,080
1/16/2018 5 AM CST 698.31 551.01 8,080
1/16/2018 6 AM CST 698.30 553.20 12,290
1/16/2018 7 AM CST 698.26 553.36 12,290
1/16/2018 8 AM CST 698.24 553.44 12,290
1/16/2018 9 AM CST 698.22 553.52 12,290
1/16/2018 10 AM CST 698.20 553.60 12,290
1/16/2018 11 AM CST 698.20 552.10 8,140
1/16/2018 12 PM CST 698.20 552.00 8,140
1/16/2018 1 PM CST 698.20 551.80 8,140
1/16/2018 2 PM CST 698.18 551.68 8,080
1/16/2018 3 PM CST 698.18 551.38 8,080
1/16/2018 4 PM CST 698.16 551.16 8,080
1/16/2018 5 PM CST 698.16 553.06 12,290
1/16/2018 6 PM CST 698.14 556.34 12,620
1/16/2018 7 PM CST 698.14 555.54 16,740
1/16/2018 8 PM CST 698.14 555.94 16,820
1/16/2018 9 PM CST 698.13 556.13 16,820
1/16/2018 10 PM CST 698.13 556.23 16,820
1/16/2018 11 PM CST 698.12 554.92 12,560
1/17/2018 12 AM CST 698.12 553.12 8,200
1/17/2018 1 AM CST 698.11 552.41 8,140
1/17/2018 2 AM CST 698.11 552.11 8,140
1/17/2018 3 AM CST 698.10 551.90 8,140
1/17/2018 4 AM CST 698.10 551.70 8,140
1/17/2018 5 AM CST 698.09 551.59 8,080
1/17/2018 6 AM CST 698.08 553.78 12,410
1/17/2018 7 AM CST 698.08 555.38 16,740
1/17/2018 8 AM CST 698.08 555.88 16,820
1/17/2018 9 AM CST 698.08 556.18 16,820
1/17/2018 10 AM CST 698.06 555.56 12,560
1/17/2018 11 AM CST 698.06 554.86 12,560
1/17/2018 12 PM CST 698.05 553.95 8,280
1/17/2018 1 PM CST 698.04 552.24 8,140
1/17/2018 2 PM CST 698.04 551.94 8,140
1/17/2018 3 PM CST 698.04 551.84 8,140
1/17/2018 4 PM CST 698.04 551.74 8,140
1/17/2018 5 PM CST 698.04 553.04 12,290
1/17/2018 6 PM CST 698.04 553.54 12,290
1/17/2018 7 PM CST 698.03 553.53 12,290
1/17/2018 8 PM CST 698.01 553.71 12,410
1/17/2018 9 PM CST 697.99 553.89 12,410

Elevations are in feet above sea level. Discharges are in cubic feet per second and are reported at the end of the hour.